Terminal Aerodrome Forecast
Issued by NWS Wakefield, VA

Home | Current Version | Previous Version | Text Only | Print | Product List | Glossary On
Versions: 1 2 3 4 5 6 7 8 9 10 11 12 13 14 15 16 17 18 19 20 21 22 23 24
000
FTUS41 KAKQ 290212 AAA
TAFRIC
TAF AMD
KRIC 290212Z 2902/2924 06007KT 3SM -RA BR OVC005
      TEMPO 2902/2904 1SM +TSRA BR OVC003CB
     FM290400 05006KT 2SM -RA BR OVC003
     FM290800 03003KT 1/2SM FG OVC001
     FM291300 05004KT 1SM BR OVC003
     FM291800 02003KT P6SM OVC015=

USA.gov is the U.S. government's official web portal to all federal, state and local government web resources and services.